Latest Weather Observations for Christmas Creek

IDW60801

Issued at 10:13 pm WST Monday 29 November 2021 (issued every 10 minutes, with the page automatically refreshed every 10 minutes)

About weather observations | Map of weather stations | Latest weather observations for WA | Other Formats
Station Details ID: 505049 Name: CHRISTMAS CREEK Lat: -22.36 Lon: 119.65 Height: 437.21 m
Data from the previous 72 hours. | See also: Recent months for locations in Western Australia
Date/Time
WST
Temp
°C
App
Temp
°C
Dew
Point
°C
Rel
Hum
%
Delta-T
°C
Wind Press
QNH
hPa
Press
MSL
hPa
Rain since
9am
mm
Dir  Spd
km/h
Gust
km/h
Spd
kts
Gust
kts
29/10:00pm 29.0 25.7 -1.2 14 14.3 NNE 6 9 3 5 1011.7 1008.5 0.0
29/09:30pm 29.5 26.5 -1.8 13 14.7 N 4 6 2 3 1011.7 1008.5 0.0
29/09:00pm 30.6 27.2 -2.0 12 15.4 NE 6 9 3 5 1011.4 1008.2 0.0
29/08:30pm 31.5 28.0 -2.5 11 16.1 NNE 6 7 3 4 1011.2 1008.0 0.0
29/08:00pm 33.2 30.1 -2.5 10 17.1 ENE 4 6 2 3 1011.0 1007.7 0.0
29/07:30pm 35.5 31.9 -3.8 8 18.7 ESE 6 7 3 4 1010.6 1007.4 0.0
29/07:00pm 35.9 32.3 -3.5 8 18.9 SSE 6 11 3 6 1010.3 1007.1 0.0
29/06:30pm 37.3 33.4 -4.2 7 19.8 SE 7 11 4 6 1009.9 1006.7 0.0
29/06:00pm 38.5 34.4 -3.4 7 20.5 SSW 9 19 5 10 1009.6 1006.4 0.0
29/05:30pm 39.0 34.5 -3.0 7 20.7 S 11 28 6 15 1009.4 1006.2 0.0
29/05:00pm 39.4 35.7 -2.7 7 20.9 SW 7 32 4 17 1009.1 1005.9 0.0
29/04:30pm 39.3 35.8 -2.8 7 20.8 SW 6 11 3 6 1009.1 1005.9 0.0
29/04:00pm 39.8 35.0 -2.4 7 21.1 SE 13 24 7 13 1009.3 1006.1 0.0
29/03:30pm 39.5 34.3 -2.6 7 20.9 SSW 15 33 8 18 1009.5 1006.3 0.0
29/03:00pm 39.3 35.8 -2.8 7 20.9 WNW 6 17 3 9 1009.7 1006.5 0.0
29/02:30pm 39.0 33.8 -3.0 7 20.7 S 15 32 8 17 1010.2 1007.0 0.0
29/02:00pm 39.2 33.6 -2.9 7 20.8 SSW 17 32 9 17 1010.3 1007.1 0.0
29/01:30pm 38.2 33.3 -3.6 7 20.3 SE 13 22 7 12 1010.7 1007.5 0.0
29/01:00pm 38.8 33.4 -1.3 8 20.3 SSE 17 28 9 15 1011.1 1007.8 0.0
29/12:30pm 37.3 32.7 -0.9 9 19.2 N 13 20 7 11 1011.6 1008.4 0.0
29/12:00pm 38.0 33.5 -0.3 9 19.6 ENE 13 20 7 11 1012.3 1009.1 0.0
29/11:30am 37.2 33.9 -0.9 9 19.2 N 6 15 3 8 1012.7 1009.5 0.0
29/11:00am 36.6 32.0 -1.4 9 18.9 ESE 13 22 7 12 1013.3 1010.1 0.0
29/10:30am 35.9 31.9 -1.9 9 18.6 ESE 9 22 5 12 1013.8 1010.6 0.0
29/10:00am 35.4 32.4 0.5 11 17.8 SSE 6 17 3 9 1014.1 1010.9 0.0
29/09:30am 34.2 30.6 0.8 12 17.0 ESE 9 17 5 9 1014.4 1011.2 0.0
29/09:00am 32.3 29.0 0.4 13 15.9 SE 7 17 4 9 1014.5 1011.3 0.0
29/08:30am 30.4 27.1 -0.1 14 14.9 SE 7 13 4 7 1014.6 1011.4 0.0
29/08:00am 29.4 25.7 0.1 15 14.2 SSE 9 15 5 8 1014.6 1011.4 0.0
29/07:30am 27.5 24.3 -0.5 16 13.3 SW 6 9 3 5 1014.5 1011.3 0.0
29/07:15am 27.3 24.5 -0.7 16 13.2 S 4 7 2 4 1014.3 1011.1 0.0
29/07:00am 25.9 22.1 -1.0 17 12.5 SW 9 15 5 8 1014.3 1011.1 0.0
29/06:57am 26.0 22.6 -0.9 17 12.5 SSW 7 15 4 8 1014.3 1011.1 0.0
29/06:30am 24.6 21.1 -1.3 18 11.9 SW 7 9 4 5 1014.3 1011.1 0.0
29/06:00am 22.1 18.9 -0.6 22 10.3 WSW 6 9 3 5 1013.9 1010.7 0.0
29/05:59am 22.0 18.8 -0.7 22 10.3 SW 6 9 3 5 1013.9 1010.7 0.0
29/05:44am 21.2 17.9 -1.3 22 10.0 WSW 6 9 3 5 1013.8 1010.6 0.0
29/05:30am 22.9 20.1 -0.6 21 10.8 N 4 7 2 4 1013.4 1010.2 0.0
29/05:00am 20.9 16.6 -1.6 22 9.9 W 11 17 6 9 1013.1 1009.9 0.0
29/04:30am 20.9 17.0 -1.6 22 9.9 W 9 11 5 6 1012.5 1009.3 0.0
29/04:00am 22.2 18.7 -1.1 21 10.5 WSW 7 15 4 8 1012.2 1009.0 0.0
29/03:30am 25.0 21.6 -0.9 18 12.0 E 7 9 4 5 1011.7 1008.5 0.0
29/03:00am 23.7 20.3 -2.0 18 11.5 S 6 7 3 4 1011.7 1008.5 0.0
29/02:30am 25.5 21.9 -2.1 16 12.5 SE 7 9 4 5 1011.7 1008.5 0.0
29/02:00am 28.2 24.3 -1.8 14 14.0 SE 9 13 5 7 1011.7 1008.5 0.0
29/01:30am 27.9 24.5 -2.0 14 13.9 ESE 6 9 3 5 1011.8 1008.6 0.0
29/01:00am 29.0 25.4 -2.2 13 14.5 E 7 13 4 7 1012.0 1008.8 0.0
29/12:30am 29.7 25.0 -1.6 13 14.8 E 13 19 7 10 1012.2 1009.0 0.0
29/12:00am 30.1 25.5 -1.3 13 15.0 ESE 13 19 7 10 1012.6 1009.4 0.0
 
Date/Time
WST
Temp
°C
App
Temp
°C
Dew
Point
°C
Rel
Hum
%
Delta-T
°C
Wind Press
QNH
hPa
Press
MSL
hPa
Rain since
9am
mm
Dir  Spd
km/h
Gust
km/h
Spd
kts
Gust
kts
28/11:30pm 30.4 25.8 -1.1 13 15.1 SE 13 19 7 10 1012.7 1009.5 0.0
28/11:00pm 29.8 25.4 0.4 15 14.4 SE 13 19 7 10 1012.7 1009.5 0.0
28/10:30pm 30.4 27.4 1.8 16 14.4 E 7 11 4 6 1012.7 1009.5 0.0
28/10:00pm 30.6 27.6 1.9 16 14.5 ENE 7 9 4 5 1012.6 1009.4 0.0
28/09:30pm 30.9 26.8 2.2 16 14.6 ENE 13 13 7 7 1012.6 1009.4 0.0
28/09:00pm 32.4 28.6 1.5 14 15.7 ESE 11 13 6 7 1012.5 1009.3 0.0
28/08:30pm 32.3 29.4 1.4 14 15.7 ESE 6 9 3 5 1012.4 1009.2 0.0
28/08:00pm 33.5 30.6 2.4 14 16.1 SE 7 13 4 7 1012.1 1008.9 0.0
28/07:30pm 33.0 29.6 2.0 14 15.9 SSE 9 11 5 6 1011.9 1008.7 0.0
28/07:00pm 34.4 31.6 2.0 13 16.8 SSE 6 9 3 5 1011.6 1008.4 0.0
28/06:30pm 35.8 32.4 2.0 12 17.7 SSE 9 13 5 7 1011.3 1008.1 0.0
28/06:00pm 36.8 33.7 1.5 11 18.4 S 7 13 4 7 1010.9 1007.6 0.0
28/05:30pm 37.0 33.2 1.7 11 18.5 S 11 19 6 10 1010.5 1007.3 0.0
28/05:00pm 37.4 34.0 2.0 11 18.7 SSE 9 17 5 9 1010.4 1007.2 0.0
28/04:30pm 37.8 34.1 2.3 11 18.8 SSE 11 24 6 13 1010.4 1007.2 0.0
28/04:00pm 37.1 33.3 1.8 11 18.5 ESE 11 19 6 10 1010.4 1007.2 0.0
28/03:30pm 37.7 33.8 3.4 12 18.5 SSE 13 32 7 17 1010.7 1007.5 0.0
28/03:00pm 37.8 33.9 3.5 12 18.6 ENE 13 28 7 15 1011.1 1007.8 0.0
28/02:30pm 36.3 32.4 3.5 13 17.6 ENE 13 24 7 13 1011.5 1008.3 0.0
28/02:00pm 36.7 32.3 2.7 12 18.1 SE 15 24 8 13 1011.8 1008.6 0.0
28/01:30pm 36.3 32.0 3.5 13 17.6 E 15 24 8 13 1012.4 1009.2 0.0
28/01:00pm 37.2 32.9 3.1 12 18.3 SE 15 24 8 13 1012.7 1009.5 0.0
28/12:30pm 36.1 31.0 3.3 13 17.5 E 19 30 10 16 1013.3 1010.1 0.0
28/12:00pm 35.6 31.4 4.0 14 17.0 E 15 26 8 14 1013.8 1010.6 0.0
28/11:30am 35.2 30.0 3.7 14 16.8 ESE 20 35 11 19 1014.4 1011.2 0.0
28/11:00am 34.1 28.9 3.8 15 16.1 ESE 20 33 11 18 1014.7 1011.5 0.0
28/10:30am 34.1 29.1 4.7 16 15.9 ESE 20 33 11 18 1015.1 1011.9 0.0
28/10:00am 33.2 28.1 4.0 16 15.5 ESE 20 33 11 18 1015.4 1012.3 0.0
28/09:30am 32.5 26.3 4.3 17 15.0 E 26 39 14 21 1015.7 1012.5 0.0
28/09:00am 31.7 25.8 3.7 17 14.7 ESE 24 33 13 18 1015.9 1012.7 0.0
28/08:30am 30.6 24.3 3.6 18 14.0 ESE 26 33 14 18 1016.1 1012.9 0.0
28/08:00am 29.2 22.4 3.2 19 13.3 ESE 28 37 15 20 1016.2 1013.0 0.0
28/07:30am 28.3 22.0 3.9 21 12.6 ESE 26 35 14 19 1016.1 1012.9 0.0
28/07:00am 27.4 21.9 3.8 22 12.1 ESE 22 32 12 17 1016.1 1012.9 0.0
28/06:30am 23.3 20.7 3.3 27 9.9 S 6 7 3 4 1016.1 1012.9 0.0
28/06:00am 21.5 18.8 2.7 29 9.1 SSW 6 7 3 4 1015.7 1012.5 0.0
28/05:30am 20.7 18.0 2.5 30 8.7 SW 6 7 3 4 1015.3 1012.2 0.0
28/05:00am 20.4 17.1 2.3 30 8.6 SW 9 13 5 7 1014.7 1011.5 0.0
28/04:30am 21.9 18.6 2.6 28 9.3 ESE 9 17 5 9 1014.2 1011.0 0.0
28/04:00am 21.0 18.0 2.3 29 8.9 SSE 7 11 4 6 1013.9 1010.7 0.0
28/03:30am 21.4 18.1 2.2 28 9.2 SSW 9 13 5 7 1013.6 1010.4 0.0
28/03:00am 21.6 18.2 1.8 27 9.4 SSW 9 11 5 6 1013.1 1009.9 0.0
28/02:30am 23.0 19.7 2.5 26 10.0 SSE 9 11 5 6 1012.9 1009.7 0.0
28/02:00am 25.2 22.3 2.6 23 11.2 SE 7 11 4 6 1013.0 1009.8 0.0
28/01:30am 26.5 23.3 3.1 22 11.8 SE 9 11 5 6 1013.0 1009.8 0.0
28/01:00am 28.4 24.5 3.3 20 12.8 ESE 13 17 7 9 1013.0 1009.8 0.0
28/12:30am 28.6 25.1 3.5 20 12.9 ESE 11 15 6 8 1013.1 1009.9 0.0
28/12:00am 29.1 25.1 3.1 19 13.3 ESE 13 19 7 10 1013.3 1010.1 0.0
 
Date/Time
WST
Temp
°C
App
Temp
°C
Dew
Point
°C
Rel
Hum
%
Delta-T
°C
Wind Press
QNH
hPa
Press
MSL
hPa
Rain since
9am
mm
Dir  Spd
km/h
Gust
km/h
Spd
kts
Gust
kts
27/11:30pm 28.9 25.3 3.0 19 13.2 ESE 11 15 6 8 1013.6 1010.4 0.0
27/11:00pm 28.7 25.5 2.8 19 13.1 ESE 9 15 5 8 1013.8 1010.6 0.0
27/10:30pm 28.2 25.5 2.4 19 13.0 ESE 6 7 3 4 1013.9 1010.7 0.0
27/10:00pm 29.1 26.2 2.4 18 13.5 ESE 7 9 4 5 1013.8 1010.6 0.0
27/09:30pm 29.1 26.4 2.4 18 13.5 ESE 6 7 3 4 1013.7 1010.5 0.0
27/09:00pm 31.1 28.3 3.2 17 14.5 ESE 7 11 4 6 1013.5 1010.3 0.0
27/08:30pm 31.8 28.4 2.0 15 15.2 E 9 11 5 6 1013.0 1009.8 0.0
27/08:00pm 32.8 29.8 1.8 14 15.9 ESE 7 11 4 6 1012.8 1009.6 0.0
27/07:30pm 33.8 29.6 1.6 13 16.5 E 13 20 7 11 1012.5 1009.3 0.0
27/07:00pm 34.4 30.3 2.0 13 16.8 E 13 19 7 10 1012.1 1008.9 0.0
27/06:30pm 35.3 30.0 1.6 12 17.4 E 19 26 10 14 1011.7 1008.5 0.0
27/06:00pm 35.7 30.2 1.9 12 17.6 E 20 30 11 16 1011.3 1008.1 0.0
27/05:30pm 36.3 30.7 1.2 11 18.2 ENE 20 32 11 17 1011.0 1007.7 0.0
27/05:00pm 36.5 32.2 1.3 11 18.3 ESE 13 22 7 12 1010.7 1007.5 0.0
27/04:30pm 36.7 32.1 1.5 11 18.3 SE 15 24 8 13 1010.5 1007.3 0.0
27/04:00pm 36.8 31.8 1.5 11 18.4 ESE 17 28 9 15 1010.6 1007.4 0.0
27/03:30pm 36.3 32.2 2.4 12 17.9 ESE 13 22 7 12 1010.7 1007.5 0.0
27/03:00pm 36.4 31.8 3.6 13 17.6 ESE 17 28 9 15 1011.0 1007.7 0.0
27/02:30pm 36.4 31.6 4.6 14 17.4 NE 19 28 10 15 1011.4 1008.2 0.0
27/02:00pm 36.0 32.7 4.3 14 17.2 SE 11 24 6 13 1011.8 1008.6 0.0
27/01:30pm 35.4 29.7 4.8 15 16.7 ESE 24 37 13 20 1012.1 1008.9 0.0
27/01:00pm 35.2 30.8 4.7 15 16.6 E 17 30 9 16 1012.4 1009.2 0.0
27/12:30pm 35.1 30.9 5.5 16 16.3 SE 17 30 9 16 1012.9 1009.7 0.0
27/12:00pm 33.6 29.3 5.2 17 15.4 ESE 17 32 9 17 1013.7 1010.5 0.0
27/11:30am 33.8 28.6 5.4 17 15.5 ESE 22 35 12 19 1014.1 1010.9 0.0
27/11:00am 33.1 27.5 5.6 18 15.0 ESE 24 39 13 21 1014.5 1011.3 0.0
27/10:30am 32.7 26.9 6.1 19 14.6 ESE 26 39 14 21 1014.9 1011.7 0.0
27/10:00am 32.3 26.9 6.5 20 14.2 ESE 24 39 13 21 1015.1 1011.9 0.0
27/09:30am 31.2 24.7 6.3 21 13.6 ESE 30 41 16 22 1015.4 1012.3 0.0
27/09:00am 30.6 24.5 6.5 22 13.1 ESE 28 35 15 19 1015.7 1012.5 0.0
27/08:30am 29.1 22.1 5.9 23 12.4 ESE 32 44 17 24 1015.9 1012.7 0.0
27/08:00am 28.3 21.6 5.8 24 12.0 ESE 30 41 16 22 1016.0 1012.8 0.0
27/07:30am 27.6 21.1 6.4 26 11.4 ESE 30 43 16 23 1016.1 1012.9 0.0
27/07:00am 26.4 19.4 5.9 27 10.8 ESE 32 44 17 24 1016.1 1012.9 0.0
27/06:55am 26.3 19.6 5.8 27 10.8 ESE 30 44 16 24 1016.0 1012.8 0.0
27/06:30am 25.1 20.6 6.3 30 9.9 SE 19 26 10 14 1015.9 1012.7 0.0
27/06:00am 22.8 20.3 6.6 35 8.5 SSE 9 13 5 7 1015.9 1012.7 0.0
27/05:30am 21.1 19.5 6.2 38 7.7 SE 4 7 2 4 1015.5 1012.4 0.0
27/05:00am 20.2 18.5 5.8 39 7.3 SW 4 7 2 4 1015.1 1011.9 0.0
27/04:30am 23.5 21.0 6.7 34 8.8 SE 9 11 5 6 1014.8 1011.6 0.0
27/04:00am 23.8 20.5 6.6 33 9.1 SE 13 19 7 10 1014.3 1011.1 0.0
27/03:30am 24.2 20.9 6.5 32 9.3 SE 13 20 7 11 1014.2 1011.0 0.0
27/03:00am 24.4 21.4 6.2 31 9.5 SE 11 15 6 8 1014.3 1011.1 0.0
27/02:30am 24.8 21.8 6.1 30 9.8 SE 11 17 6 9 1014.3 1011.1 0.0
27/02:00am 25.6 21.9 6.3 29 10.2 SE 15 20 8 11 1014.1 1010.9 0.0
27/01:30am 25.6 22.6 5.8 28 10.4 ESE 11 17 6 9 1014.3 1011.1 0.0
27/01:00am 25.7 22.2 5.3 27 10.6 SE 13 17 7 9 1014.2 1011.0 0.0
27/12:30am 25.2 21.9 4.3 26 10.6 SE 11 15 6 8 1014.3 1011.1 0.0
27/12:00am 25.0 21.9 3.6 25 10.8 SE 9 15 5 8 1014.5 1011.3 0.0
 
Date/Time
WST
Temp
°C
App
Temp
°C
Dew
Point
°C
Rel
Hum
%
Delta-T
°C
Wind Press
QNH
hPa
Press
MSL
hPa
Rain since
9am
mm
Dir  Spd
km/h
Gust
km/h
Spd
kts
Gust
kts
26/11:30pm 25.0 22.4 4.2 26 10.6 SSE 7 9 4 5 1014.5 1011.3 0.0
26/11:00pm 26.3 24.0 4.7 25 11.2 ESE 6 7 3 4 1014.5 1011.3 0.0
26/10:30pm 26.8 24.2 4.0 23 11.7 SE 7 9 4 5 1014.6 1011.4 0.0

Other formats

Comma delimited format used in spreadsheet applications
http://www.bom.gov.au/fwo/IDW60801/IDW60801.99737.axf

JavaScript Object Notation format (JSON) in row-major order
http://www.bom.gov.au/fwo/IDW60801/IDW60801.99737.json

Data quality

Most of these data are generated automatically and are frequently updated. Quality checks on data are not normally performed. It is possible for incorrect values to appear. Refer to information at About Latest Weather Observations and please check the disclaimer before using these data.